Time;durP1;ratioP1;P1;durP2;ratioP2;P2;SDS_P1;SDS_P2;PMS_P1;PMS_P2;Temp;Humidity;BMP_temperature;BMP_pressure;BME280_temperature;BME280_humidity;BME280_pressure;Samples;Min_cycle;Max_cycle;Signal;HPM_P1;HPM_P2
2021/07/17 00:01:09;;;;;;;4.20;3.90;;;;;;;;;;828322;71;31132;-79
2021/07/17 00:16:15;;;;;;;4.20;3.90;;;;;;;26.81;53.34;165739.80;827521;71;32644;-76
2021/07/17 00:31:07;;;;;;;4.77;4.47;;;;;;;;;;828680;71;29815;-76
2021/07/17 00:46:09;;;;;;;5.30;4.90;;;;;;;25.81;53.35;93790.14;834961;71;29342;-77
2021/07/17 01:01:13;;;;;;;4.93;4.53;;;;;;;;;;834081;71;32652;-76
2021/07/17 01:16:13;;;;;;;5.20;4.70;;;;;;;;;;833925;71;32678;-76
2021/07/17 01:31:09;;;;;;;5.37;4.97;;;;;;;26.66;53.38;93888.44;823348;71;27834;-77
2021/07/17 01:46:09;;;;;;;6.60;5.30;;;;;;;25.42;56.77;93875.97;828282;71;30619;-77
2021/07/17 02:01:08;;;;;;;5.30;4.80;;;;;;;25.45;57.03;93862.34;828407;71;29679;-78
2021/07/17 02:16:09;;;;;;;5.60;5.10;;;;;;;25.37;57.02;93841.49;834145;71;30870;-78
2021/07/17 02:31:09;;;;;;;5.80;5.30;;;;;;;25.09;58.17;93846.50;828348;71;30068;-78
2021/07/17 02:46:08;;;;;;;6.20;5.67;;;;;;;25.21;57.65;93847.39;834868;71;29695;-77
2021/07/17 03:16:15;;;;;;;5.83;5.30;;;;;;;21.84;59.54;93835.94;827643;71;32685;-79
2021/07/17 03:31:10;;;;;;;5.77;5.27;;;;;;;23.88;54.65;93836.07;828218;71;30321;-78
2021/07/17 03:46:08;;;;;;;6.00;5.40;;;;;;;25.71;49.90;93832.69;834177;71;29477;-79
2021/07/17 04:01:09;;;;;;;5.20;4.70;;;;;;;26.72;47.69;93834.91;834192;71;30104;-76
2021/07/17 04:16:14;;;;;;;6.80;6.10;;;;;;;25.93;49.71;93834.02;833997;71;33134;-77
2021/07/17 04:31:14;;;;;;;6.47;5.87;;;;;;;25.53;50.86;93842.30;827564;71;33225;-78
2021/07/17 04:46:08;;;;;;;6.70;6.03;;;;;;;25.29;51.47;93838.69;834031;71;29879;-75
2021/07/17 05:01:12;;;;;;;7.00;6.40;;;;;;;26.06;50.26;93829.45;836032;69;32180;-77
2021/07/17 05:16:08;;;;;;;7.73;6.20;;;;;;;26.83;48.55;93812.64;828331;71;29906;-76
2021/07/17 05:31:15;;;;;;;10.40;7.43;;;;;;;24.98;52.65;93814.39;834719;71;32833;-79
2021/07/17 05:46:08;;;;;;;8.47;7.67;;;;;;;24.06;55.13;93810.53;828380;71;29757;-76
2021/07/17 06:01:09;;;;;;;9.77;7.60;;;;;;;23.98;55.67;93804.44;834759;71;30292;-77
2021/07/17 06:16:20;;;;;;;10.37;7.80;;;;;;;24.29;54.98;93795.86;827517;71;32737;-77
2021/07/17 06:31:13;;;;;;;7.60;6.10;;;;;;;24.91;49.63;93776.27;834206;71;30164;-76
2021/07/17 06:46:10;;;;;;;6.00;5.40;;;;;;;25.41;45.42;93777.75;828453;71;29854;-76
2021/07/17 07:01:29;;;;;;;5.90;5.17;;;;;;;25.92;44.43;93759.14;827388;71;32701;-79
2021/07/17 07:16:21;;;;;;;4.90;4.57;;;;;;;26.74;41.02;93745.08;834150;71;30322;-76
2021/07/17 07:31:19;;;;;;;12.00;5.30;;;;;;;27.72;40.33;93742.19;834540;71;30279;-78
2021/07/17 07:46:23;;;;;;;6.17;5.57;;;;;;;28.39;40.21;93754.08;827274;71;32670;-74
2021/07/17 08:01:13;;;;;;;6.13;5.70;;;;;;;28.47;39.20;93767.58;834043;71;29359;-77
2021/07/17 08:02:17;;;;;;;8.63;6.20;;;;;;;28.46;39.26;93763.94;821743;72;27241;-76
2021/07/17 08:16:11;;;;;;;5.60;5.00;;;;;;;28.75;38.56;93754.59;828227;71;29292;-75
2021/07/17 08:31:30;;;;;;;6.07;5.47;;;;;;;29.38;36.97;93753.45;827352;71;32688;-77
2021/07/17 08:46:38;;;;;;;5.40;4.87;;;;;;;29.16;36.30;93741.84;828230;71;29782;-75
2021/07/17 09:16:11;;;;;;;8.90;5.50;;;;;;;30.60;33.16;93737.78;833872;71;30215;-75
2021/07/17 09:31:15;;;;;;;5.30;4.80;;;;;;;31.02;31.21;93713.80;827310;71;33203;-75
2021/07/17 09:46:22;;;;;;;7.67;4.83;;;;;;;31.43;30.67;93708.70;828329;71;32757;-75
2021/07/17 10:01:22;;;;;;;6.43;4.50;;;;;;;31.58;30.42;93702.19;828068;71;32672;-76
2021/07/17 10:16:23;;;;;;;4.97;4.60;;;;;;;31.53;30.43;93696.75;828084;71;29702;-76
2021/07/17 10:31:08;;;;;;;6.43;4.33;;;;;;;31.65;29.83;93687.02;833856;71;29678;-75
2021/07/17 10:46:37;;;;;;;5.00;4.50;;;;;;;31.64;29.50;93670.58;828099;71;29732;-75
2021/07/17 11:01:21;;;;;;;8.67;4.50;;;;;;;31.75;29.24;93648.46;834189;71;30164;-77
2021/07/17 11:16:26;;;;;;;5.17;4.67;;;;;;;31.04;29.80;93634.91;828120;71;29686;-75
2021/07/17 11:31:37;;;;;;;4.70;4.30;;;;;;;31.14;30.29;93627.03;834396;71;29954;-77
2021/07/17 11:46:14;;;;;;;8.90;4.90;;;;;;;31.60;30.03;93604.10;834264;71;30633;-76
2021/07/17 12:01:14;;;;;;;5.03;4.63;;;;;;;31.42;29.13;93594.64;828372;71;31416;-74
2021/07/17 12:16:20;;;;;;;4.40;4.00;;;;;;;31.77;28.36;93579.58;828271;71;30104;-74
2021/07/17 12:31:23;;;;;;;6.23;5.83;;;;;;;32.02;32.94;93580.61;829015;71;29766;-76
2021/07/17 12:46:38;;;;;;;9.73;6.30;;;;;;;31.88;32.85;93577.83;833991;71;33135;-75
2021/07/17 13:01:19;;;;;;;9.40;6.47;;;;;;;31.87;33.83;93551.27;828069;71;29976;-75
2021/07/17 13:02:23;;;;;;;7.10;6.47;;;;;;;31.94;33.81;93567.89;808686;73;27531;-74
2021/07/17 13:16:27;;;;;;;7.47;6.87;;;;;;;31.99;33.58;93538.04;828326;71;29709;-74
2021/07/17 13:31:34;;;;;;;8.93;7.47;;;;;;;31.21;37.31;93530.37;828085;71;29586;-74
2021/07/17 13:46:21;;;;;;;8.03;7.23;;;;;;;30.90;37.94;93506.71;827418;71;32639;-75
2021/07/17 14:01:20;;;;;;;9.63;7.03;;;;;;;30.52;38.95;93521.20;829046;71;29565;-75
2021/07/17 14:16:23;;;;;;;8.60;7.70;;;;;;;30.06;40.73;93503.20;828833;71;29791;-76
2021/07/17 14:31:28;;;;;;;7.63;7.03;;;;;;;30.27;40.85;93487.61;828252;71;32839;-75
2021/07/17 14:46:19;;;;;;;21.40;19.57;;;;;;;30.70;39.83;93465.80;828421;71;29720;-78
2021/07/17 15:16:08;;;;;;;7.77;7.17;;;;;;;30.32;39.56;93455.92;828922;71;29761;-76
2021/07/17 15:31:15;;;;;;;8.20;7.13;;;;;;;30.11;40.06;93460.11;827186;71;32734;-79
2021/07/17 15:46:09;;;;;;;7.67;6.93;;;;;;;29.70;40.31;93462.41;827996;71;30422;-78
2021/07/17 16:01:09;;;;;;;8.57;7.70;;;;;;;29.73;40.49;93460.23;828044;71;30351;-81
2021/07/17 16:16:25;;;;;;;9.20;7.87;;;;;;;29.42;41.40;93466.20;827962;71;32615;-76
2021/07/17 16:46:13;;;;;;;7.90;6.30;;;;;;;29.31;39.36;93462.47;834996;70;29812;-77
2021/07/17 17:01:15;;;;;;;6.03;5.53;;;;;;;29.21;38.48;93466.86;828305;71;30867;-78
2021/07/17 17:16:10;;;;;;;6.77;6.07;;;;;;;28.98;39.28;93481.42;828714;71;30339;-78
2021/07/17 17:17:14;;;;;;;7.80;6.07;;;;;;;28.94;39.43;93488.27;809090;72;26955;-78
2021/07/17 17:31:23;;;;;;;8.90;6.70;;;;;;;28.76;39.77;93492.23;828251;71;30245;-84
2021/07/17 17:46:21;;;;;;;6.57;6.07;;;;;;;28.46;40.55;93500.17;829946;70;30271;-80
2021/07/17 18:01:34;;;;;;;8.13;6.03;;;;;;;28.15;40.90;93513.34;823152;71;30925;-77
2021/07/17 18:16:33;;;;;;;5.90;5.40;;;;;;;27.93;41.13;93538.73;821809;71;30375;-77
2021/07/17 18:31:24;;;;;;;6.37;5.77;;;;;;;27.71;40.96;93553.28;822037;71;32914;-81
2021/07/17 18:46:12;;;;;;;6.43;5.83;;;;;;;27.54;40.57;93549.83;823346;71;29769;-79
2021/07/17 19:01:16;;;;;;;6.13;5.07;;;;;;;27.27;40.70;93550.80;820203;71;32870;-79
2021/07/17 19:16:33;;;;;;;6.53;5.80;;;;;;;27.08;40.99;93577.90;821045;71;33316;-78
2021/07/17 19:31:26;;;;;;;5.93;5.30;;;;;;;27.04;41.41;93563.75;823243;71;32906;-77
2021/07/17 19:46:54;;;;;;;5.70;5.30;;;;;;;26.93;41.76;93573.39;793706;74;32934;-78
2021/07/17 20:01:16;;;;;;;5.60;5.20;;;;;;;26.76;41.23;93575.27;834001;71;29645;-77
2021/07/17 20:16:20;;;;;;;5.50;5.10;;;;;;;26.68;41.54;93571.17;833976;71;32635;-75
2021/07/17 20:31:10;;;;;;;5.07;4.57;;;;;;;;;;828289;71;29776;-77
2021/07/17 20:46:15;;;;;;;5.77;5.27;;;;;;;26.40;42.72;93581.88;819584;71;32804;-77
2021/07/17 21:16:10;;;;;;;7.90;6.20;;;;;;;26.10;43.89;93588.14;822519;71;29829;-75
2021/07/17 21:31:10;;;;;;;6.43;5.80;;;;;;;25.82;43.16;93582.60;828026;71;30317;-79
2021/07/17 21:46:08;;;;;;;7.13;6.47;;;;;;;25.57;44.27;93571.06;828160;71;29698;-80
2021/07/17 22:01:14;;;;;;;6.40;5.73;;;;;;;25.50;44.33;93589.20;828143;71;29484;-76
2021/07/17 22:02:18;;;;;;;6.40;5.80;;;;;;;25.45;44.45;93581.02;808560;73;26554;-78
2021/07/17 22:16:12;;;;;;;5.77;5.27;;;;;;;25.39;43.76;93582.05;835157;71;29297;-79
2021/07/17 22:31:32;;;;;;;7.10;6.47;;;;;;;25.15;45.33;93569.70;827276;71;33167;-76
2021/07/17 22:46:38;;;;;;;7.80;6.23;;;;;;;24.82;46.48;93548.42;833974;71;29754;-76
2021/07/17 23:01:24;;;;;;;9.13;6.60;;;;;;;24.63;47.62;93550.56;828151;71;30291;-78
2021/07/17 23:16:18;;;;;;;6.37;5.77;;;;;;;24.64;48.10;93560.14;828139;71;29647;-77
2021/07/17 23:31:16;;;;;;;7.53;5.20;;;;;;;24.72;48.66;93572.31;835917;71;29202;-80
2021/07/17 23:46:20;;;;;;;6.80;6.10;;;;;;;24.57;48.93;93574.41;808092;71;33389;-77
